Observations for BARCELONA AIRPORT, Spain (LEBL)

LEBL 260500Z 32008KT CAVOK 21/16 Q1016 NOSIG
LEBL 260430Z 32008KT CAVOK 21/16 Q1016 NOSIG
LEBL 260400Z 32007KT CAVOK 22/16 Q1016 NOSIG
LEBL 260330Z 32007KT CAVOK 21/16 Q1016 NOSIG
LEBL 260300Z 31006KT CAVOK 21/15 Q1016 NOSIG
LEBL 260230Z 31004KT 260V340 CAVOK 21/16 Q1017 NOSIG
LEBL 260200Z 32005KT CAVOK 22/16 Q1017 NOSIG
LEBL 260130Z 31004KT CAVOK 22/16 Q1017 NOSIG
LEBL 260100Z 31004KT CAVOK 22/15 Q1017 NOSIG
LEBL 260030Z 32003KT CAVOK 23/17 Q1017 NOSIG
LEBL 260000Z 31003KT CAVOK 22/16 Q1017 NOSIG
LEBL 252330Z 32003KT CAVOK 23/17 Q1017 NOSIG
LEBL 252300Z 30004KT CAVOK 23/17 Q1017 NOSIG
LEBL 252230Z 30004KT CAVOK 23/17 Q1017 NOSIG
LEBL 252200Z 25003KT 210V290 CAVOK 24/18 Q1017 NOSIG
LEBL 252130Z 21003KT CAVOK 25/21 Q1017 NOSIG
LEBL 252100Z 20004KT CAVOK 25/21 Q1017 NOSIG
LEBL 252030Z 22005KT CAVOK 25/21 Q1017 NOSIG
LEBL 252000Z 24005KT CAVOK 25/21 Q1017 NOSIG
LEBL 251930Z 22004KT CAVOK 25/21 Q1017 NOSIG
LEBL 251900Z 23005KT CAVOK 25/21 Q1017 NOSIG
LEBL 251830Z 22006KT CAVOK 26/21 Q1016 NOSIG
LEBL 251800Z 21006KT CAVOK 27/22 Q1016 NOSIG
LEBL 251730Z 21006KT CAVOK 27/21 Q1016 NOSIG
LEBL 251700Z 19006KT 160V220 CAVOK 27/22 Q1016 NOSIG
LEBL 251630Z 19006KT 160V220 CAVOK 27/22 Q1016 NOSIG
LEBL 251600Z 19008KT 170V230 CAVOK 28/21 Q1017 NOSIG
LEBL 251530Z 20008KT 150V240 CAVOK 28/21 Q1017 NOSIG
LEBL 251500Z 22008KT 170V240 CAVOK 27/21 Q1017 NOSIG
LEBL 251430Z 20010KT 170V240 9999 FEW030 27/21 Q1017 NOSIG  
LEBL 251400Z 20010KT 160V220 9999 FEW030 28/22 Q1017 NOSIG  
LEBL 251330Z 20009KT 160V240 9999 FEW030 28/22 Q1017 NOSIG  
LEBL 251300Z 20011KT 170V230 9999 FEW030 28/22 Q1017 NOSIG  
LEBL 251230Z 20013KT 9999 FEW030 28/22 Q1017 NOSIG  
LEBL 251200Z 20013KT 9999 FEW030 28/22 Q1017 NOSIG  
LEBL 251130Z 19012KT 160V230 CAVOK 28/22 Q1017 NOSIG
LEBL 251100Z 21012KT 170V240 CAVOK 27/22 Q1017 NOSIG
LEBL 251030Z 21010KT 180V240 CAVOK 28/20 Q1017 NOSIG
LEBL 251000Z 20010KT CAVOK 27/21 Q1018 NOSIG
LEBL 250930Z 21009KT CAVOK 27/20 Q1018 NOSIG
LEBL 250900Z 21007KT CAVOK 27/21 Q1018 NOSIG
LEBL 250830Z 26003KT 200V330 CAVOK 26/21 Q1018 NOSIG
LEBL 250800Z 28004KT 250V330 CAVOK 26/19 Q1018 NOSIG
LEBL 250730Z 32005KT 270V360 CAVOK 25/18 Q1018 NOSIG
LEBL 250700Z 32006KT 280V360 CAVOK 24/17 Q1017 NOSIG
LEBL 250630Z 32006KT 270V350 CAVOK 23/17 Q1017 NOSIG
LEBL 250600Z 32005KT CAVOK 23/18 Q1017 NOSIG
LEBL 250530Z 31005KT 260V350 CAVOK 22/18 Q1017 NOSIG
LEBL 250500Z 32005KT CAVOK 22/18 Q1017 NOSIG
LEBL 250430Z 32005KT CAVOK 22/18 Q1017 NOSIG